createdAt,value
2017-07-08T00:00:20.922Z,1009.92
2017-07-08T00:01:01.836Z,1009.91
2017-07-08T00:01:42.941Z,1009.93
2017-07-08T00:02:23.856Z,1009.94
2017-07-08T00:03:04.726Z,1009.95
2017-07-08T00:03:45.613Z,1009.96
2017-07-08T00:04:26.497Z,1009.96
2017-07-08T00:05:07.396Z,1010
2017-07-08T00:05:48.269Z,1010
2017-07-08T00:06:29.217Z,1009.97
2017-07-08T00:07:10.117Z,1009.99
2017-07-08T00:07:51.011Z,1009.98
2017-07-08T00:08:31.894Z,1010.01
2017-07-08T00:09:12.782Z,1009.99
2017-07-08T00:09:53.685Z,1010.03
2017-07-08T00:10:34.557Z,1010.03
2017-07-08T00:11:15.447Z,1010.04
2017-07-08T00:11:56.353Z,1010.02
2017-07-08T00:12:37.263Z,1010.02
2017-07-08T00:13:18.165Z,1010
2017-07-08T00:13:59.062Z,1010.01
2017-07-08T00:14:39.959Z,1010.01
2017-07-08T00:15:20.853Z,1010.01
2017-07-08T00:16:01.734Z,1009.99
2017-07-08T00:16:42.646Z,1009.98
2017-07-08T00:17:23.531Z,1009.97
2017-07-08T00:18:04.432Z,1009.96
2017-07-08T00:18:45.339Z,1009.98
2017-07-08T00:19:26.228Z,1009.96
2017-07-08T00:20:07.136Z,1009.95
2017-07-08T00:20:48.025Z,1009.94
2017-07-08T00:21:28.911Z,1009.94
2017-07-08T00:22:09.812Z,1009.95
2017-07-08T00:22:50.702Z,1009.93
2017-07-08T00:23:31.603Z,1009.96
2017-07-08T00:24:12.500Z,1009.95
2017-07-08T00:24:53.392Z,1009.95
2017-07-08T00:25:34.273Z,1009.97
2017-07-08T00:26:15.179Z,1010.01
2017-07-08T00:26:56.078Z,1009.96
2017-07-08T00:27:36.972Z,1010
2017-07-08T00:28:17.866Z,1010.02
2017-07-08T00:28:58.749Z,1010.02
2017-07-08T00:29:39.645Z,1010.03
2017-07-08T00:30:20.531Z,1010.05
2017-07-08T00:31:01.429Z,1010.08
2017-07-08T00:31:42.315Z,1010.05
2017-07-08T00:32:23.273Z,1010.05
2017-07-08T00:33:04.222Z,1010.06
2017-07-08T00:33:45.114Z,1010.07
2017-07-08T00:34:25.994Z,1010.07
2017-07-08T00:35:06.883Z,1010.05
2017-07-08T00:35:47.778Z,1010.06
2017-07-08T00:36:28.665Z,1010.04
2017-07-08T00:37:09.548Z,1010.02
2017-07-08T00:37:50.457Z,1010.05
2017-07-08T00:38:31.337Z,1010.02
2017-07-08T00:39:12.232Z,1010.03
2017-07-08T00:39:53.128Z,1010.04
2017-07-08T00:40:34.018Z,1010.06
2017-07-08T00:41:14.920Z,1010.01
2017-07-08T00:41:55.817Z,1010.03
2017-07-08T00:42:36.708Z,1010.01
2017-07-08T00:43:17.604Z,1009.96
2017-07-08T00:43:58.505Z,1009.98
2017-07-08T00:44:39.389Z,1009.96
2017-07-08T00:45:20.285Z,1009.95
2017-07-08T00:46:01.178Z,1009.93
2017-07-08T00:46:42.078Z,1009.92
2017-07-08T00:47:22.965Z,1009.92
2017-07-08T00:49:21.761Z,1009.89
2017-07-08T00:50:02.650Z,1009.86
2017-07-08T00:50:43.567Z,1009.89
2017-07-08T00:51:24.460Z,1009.88
2017-07-08T00:52:05.357Z,1009.89
2017-07-08T00:52:46.247Z,1009.85
2017-07-08T00:53:27.159Z,1009.82
2017-07-08T00:54:08.036Z,1009.86
2017-07-08T00:54:48.926Z,1009.85
2017-07-08T00:55:29.818Z,1009.86
2017-07-08T00:56:10.709Z,1009.85
2017-07-08T00:56:51.622Z,1009.86
2017-07-08T00:57:32.509Z,1009.85
2017-07-08T00:58:13.411Z,1009.84
2017-07-08T00:58:54.315Z,1009.85
2017-07-08T00:59:35.209Z,1009.85
2017-07-08T01:00:16.099Z,1009.88
2017-07-08T01:00:57.000Z,1009.86
2017-07-08T01:01:37.880Z,1009.85
2017-07-08T01:02:18.764Z,1009.84
2017-07-08T01:02:59.657Z,1009.87
2017-07-08T01:03:40.528Z,1009.85
2017-07-08T01:04:21.408Z,1009.89
2017-07-08T01:05:02.306Z,1009.86
2017-07-08T01:05:43.201Z,1009.86
2017-07-08T01:06:24.085Z,1009.87
2017-07-08T01:07:04.977Z,1009.88
2017-07-08T01:07:45.871Z,1009.9
2017-07-08T01:08:26.768Z,1009.88
2017-07-08T01:09:07.681Z,1009.89
2017-07-08T01:09:48.562Z,1009.88
2017-07-08T01:10:29.437Z,1009.88
2017-07-08T01:11:10.337Z,1009.89
2017-07-08T01:11:51.223Z,1009.85
2017-07-08T01:12:32.113Z,1009.87
2017-07-08T01:13:12.971Z,1009.9
2017-07-08T01:13:53.855Z,1009.9
2017-07-08T01:14:34.746Z,1009.89
2017-07-08T01:15:15.684Z,1009.89
2017-07-08T01:15:56.581Z,1009.9
2017-07-08T01:16:37.462Z,1009.9
2017-07-08T01:17:18.358Z,1009.91
2017-07-08T01:17:59.253Z,1009.91
2017-07-08T01:18:40.142Z,1009.9
2017-07-08T01:19:21.026Z,1009.91
2017-07-08T01:20:01.919Z,1009.91
2017-07-08T01:20:42.805Z,1009.88
2017-07-08T01:21:23.733Z,1009.87
2017-07-08T01:22:04.621Z,1009.85
2017-07-08T01:22:45.501Z,1009.84
2017-07-08T01:23:26.396Z,1009.84
2017-07-08T01:24:07.285Z,1009.82
2017-07-08T01:24:48.184Z,1009.81
2017-07-08T01:25:29.100Z,1009.77
2017-07-08T01:26:09.984Z,1009.77
2017-07-08T01:26:50.881Z,1009.78
2017-07-08T01:27:31.767Z,1009.8
2017-07-08T01:28:12.655Z,1009.79
2017-07-08T01:28:53.556Z,1009.79
2017-07-08T01:29:34.446Z,1009.76
2017-07-08T01:30:15.339Z,1009.79
2017-07-08T01:30:56.262Z,1009.76
2017-07-08T01:31:37.114Z,1009.79
2017-07-08T01:32:17.999Z,1009.76
2017-07-08T01:32:58.928Z,1009.75
2017-07-08T01:33:39.810Z,1009.75
2017-07-08T01:34:20.702Z,1009.76
2017-07-08T01:35:01.601Z,1009.79
2017-07-08T01:35:42.489Z,1009.76
2017-07-08T01:36:23.377Z,1009.76
2017-07-08T01:37:04.274Z,1009.77
2017-07-08T01:37:45.173Z,1009.76
2017-07-08T01:38:26.072Z,1009.78
2017-07-08T01:39:06.987Z,1009.81
2017-07-08T01:39:47.874Z,1009.83
2017-07-08T01:40:28.775Z,1009.83
2017-07-08T01:41:09.654Z,1009.82
2017-07-08T01:41:50.565Z,1009.82
2017-07-08T01:42:31.451Z,1009.85
2017-07-08T01:43:12.330Z,1009.84
2017-07-08T01:43:53.221Z,1009.84
2017-07-08T01:44:34.122Z,1009.83
2017-07-08T01:45:15.004Z,1009.82
2017-07-08T01:45:55.899Z,1009.8
2017-07-08T01:46:36.794Z,1009.82
2017-07-08T01:47:17.738Z,1009.81
2017-07-08T01:47:58.574Z,1009.78
2017-07-08T01:48:39.469Z,1009.78
2017-07-08T01:49:20.354Z,1009.78
2017-07-08T01:50:01.250Z,1009.8
2017-07-08T01:50:42.143Z,1009.77
2017-07-08T01:51:23.037Z,1009.78
2017-07-08T01:52:03.938Z,1009.76
2017-07-08T01:52:44.831Z,1009.81
2017-07-08T01:53:25.707Z,1009.77
2017-07-08T01:54:06.595Z,1009.79
2017-07-08T01:54:47.488Z,1009.81
2017-07-08T01:55:28.373Z,1009.83
2017-07-08T01:56:09.293Z,1009.79
2017-07-08T01:56:50.195Z,1009.8
2017-07-08T01:57:31.035Z,1009.82
2017-07-08T01:58:11.957Z,1009.83
2017-07-08T01:58:52.847Z,1009.79
2017-07-08T01:59:33.736Z,1009.81
2017-07-08T02:00:14.628Z,1009.81
2017-07-08T02:00:55.521Z,1009.79
2017-07-08T02:01:36.397Z,1009.82
2017-07-08T02:02:17.344Z,1009.81
2017-07-08T02:02:58.166Z,1009.81
2017-07-08T02:03:39.062Z,1009.79
2017-07-08T02:04:19.952Z,1009.84
2017-07-08T02:05:00.853Z,1009.78
2017-07-08T02:05:41.749Z,1009.82
2017-07-08T02:06:22.637Z,1009.81
2017-07-08T02:07:03.529Z,1009.8
2017-07-08T02:07:44.421Z,1009.83
2017-07-08T02:08:25.315Z,1009.84
2017-07-08T02:09:06.209Z,1009.8
2017-07-08T02:09:47.105Z,1009.84
2017-07-08T02:10:27.990Z,1009.82
2017-07-08T02:11:08.883Z,1009.79
2017-07-08T02:11:49.769Z,1009.82
2017-07-08T02:12:30.665Z,1009.8
2017-07-08T02:13:11.549Z,1009.79
2017-07-08T02:13:52.448Z,1009.82
2017-07-08T02:14:33.343Z,1009.8
2017-07-08T02:15:14.227Z,1009.8
2017-07-08T02:15:55.119Z,1009.83
2017-07-08T02:16:36.023Z,1009.83
2017-07-08T02:17:16.898Z,1009.83
2017-07-08T02:17:57.799Z,1009.85
2017-07-08T02:18:38.692Z,1009.83
2017-07-08T02:19:19.583Z,1009.84
2017-07-08T02:20:00.479Z,1009.83
2017-07-08T02:20:41.362Z,1009.85
2017-07-08T02:21:22.249Z,1009.86
2017-07-08T02:22:03.153Z,1009.87
2017-07-08T02:22:44.039Z,1009.86
2017-07-08T02:23:24.947Z,1009.83
2017-07-08T02:24:05.840Z,1009.81
2017-07-08T02:24:46.778Z,1009.83
2017-07-08T02:25:27.624Z,1009.85
2017-07-08T02:26:08.507Z,1009.81
2017-07-08T02:26:49.412Z,1009.78
2017-07-08T02:27:30.296Z,1009.8
2017-07-08T02:28:11.195Z,1009.8
2017-07-08T02:28:52.090Z,1009.85
2017-07-08T02:29:32.974Z,1009.85
2017-07-08T02:30:13.868Z,1009.87
2017-07-08T02:30:54.752Z,1009.85
2017-07-08T02:31:35.638Z,1009.89
2017-07-08T02:32:16.525Z,1009.85
2017-07-08T02:32:57.416Z,1009.81
2017-07-08T02:33:38.314Z,1009.81
2017-07-08T02:34:19.213Z,1009.75
2017-07-08T02:35:00.095Z,1009.77
2017-07-08T02:35:40.976Z,1009.77
2017-07-08T02:36:21.871Z,1009.75
2017-07-08T02:37:02.758Z,1009.75
2017-07-08T02:37:43.657Z,1009.77
2017-07-08T02:38:24.537Z,1009.81
2017-07-08T02:39:05.448Z,1009.83
2017-07-08T02:39:46.337Z,1009.85
2017-07-08T02:40:27.223Z,1009.9
2017-07-08T02:41:08.105Z,1009.91
2017-07-08T02:41:49.005Z,1009.91
2017-07-08T02:42:29.881Z,1009.9
2017-07-08T02:43:10.787Z,1009.91
2017-07-08T02:43:51.675Z,1009.87
2017-07-08T02:44:32.554Z,1009.85
2017-07-08T02:45:13.434Z,1009.81
2017-07-08T02:45:54.324Z,1009.86
2017-07-08T02:46:35.219Z,1009.84
2017-07-08T02:47:16.091Z,1009.85
2017-07-08T02:47:56.990Z,1009.85
2017-07-08T02:48:37.888Z,1009.85
2017-07-08T02:49:18.785Z,1009.85
2017-07-08T02:49:59.673Z,1009.85
2017-07-08T02:50:40.573Z,1009.88
2017-07-08T02:51:21.463Z,1009.87
2017-07-08T02:52:02.347Z,1009.87
2017-07-08T02:52:43.249Z,1009.9
2017-07-08T02:53:24.137Z,1009.91
2017-07-08T02:54:05.019Z,1009.89
2017-07-08T02:54:45.906Z,1009.93
2017-07-08T02:55:26.799Z,1009.86
2017-07-08T02:56:07.690Z,1009.91
2017-07-08T02:56:48.591Z,1009.9
2017-07-08T02:57:29.491Z,1009.92
2017-07-08T02:58:10.364Z,1009.89
2017-07-08T02:58:51.257Z,1009.89
2017-07-08T02:59:32.157Z,1009.87
2017-07-08T03:00:13.053Z,1009.89
2017-07-08T03:00:53.961Z,1009.86
2017-07-08T03:01:34.849Z,1009.85
2017-07-08T03:02:15.721Z,1009.84
2017-07-08T03:02:56.611Z,1009.91
2017-07-08T03:03:37.497Z,1009.87
2017-07-08T03:04:18.394Z,1009.93
2017-07-08T03:04:59.292Z,1009.89
2017-07-08T03:05:40.186Z,1009.87
2017-07-08T03:06:21.060Z,1009.91
2017-07-08T03:07:01.952Z,1009.92
2017-07-08T03:07:42.853Z,1009.88
2017-07-08T03:08:23.742Z,1009.89
2017-07-08T03:09:04.638Z,1009.89
2017-07-08T03:09:45.529Z,1009.89
2017-07-08T03:10:26.415Z,1009.88
2017-07-08T03:11:07.313Z,1009.9
2017-07-08T03:11:48.205Z,1009.89
2017-07-08T03:12:29.101Z,1009.91
2017-07-08T03:13:10.006Z,1009.93
2017-07-08T03:13:50.892Z,1009.95
2017-07-08T03:14:31.768Z,1009.97
2017-07-08T03:15:12.664Z,1010
2017-07-08T03:15:53.571Z,1010.02
2017-07-08T03:16:34.450Z,1010.01
2017-07-08T03:17:15.345Z,1010.02
2017-07-08T03:17:56.230Z,1010.02
2017-07-08T03:18:37.115Z,1010.02
2017-07-08T03:19:18.009Z,1009.98
2017-07-08T03:19:58.899Z,1009.97
2017-07-08T03:20:39.787Z,1010.01
2017-07-08T03:21:20.679Z,1010
2017-07-08T03:22:01.567Z,1009.98
2017-07-08T03:22:42.464Z,1009.95
2017-07-08T03:23:23.336Z,1009.96
2017-07-08T03:24:04.229Z,1009.94
2017-07-08T03:24:45.136Z,1009.96
2017-07-08T03:25:26.007Z,1009.94
2017-07-08T03:26:06.906Z,1009.93
2017-07-08T03:26:47.788Z,1009.95
2017-07-08T03:27:28.675Z,1009.93
2017-07-08T03:28:09.547Z,1009.93
2017-07-08T03:28:50.459Z,1009.92
2017-07-08T03:29:31.338Z,1009.96
2017-07-08T03:30:12.230Z,1009.88
2017-07-08T03:30:53.129Z,1009.93
2017-07-08T03:31:34.012Z,1009.93
2017-07-08T03:32:14.885Z,1009.94
2017-07-08T03:32:55.772Z,1009.96
2017-07-08T03:33:36.665Z,1009.97
2017-07-08T03:34:17.555Z,1009.98
2017-07-08T03:34:58.448Z,1010.03
2017-07-08T03:35:39.343Z,1010
2017-07-08T03:36:20.236Z,1010.1
2017-07-08T03:37:01.137Z,1010.06
2017-07-08T03:37:42.044Z,1010.09
2017-07-08T03:38:22.915Z,1010.07
2017-07-08T03:39:03.828Z,1010.07
2017-07-08T03:39:44.718Z,1010.08
2017-07-08T03:40:25.587Z,1010.01
2017-07-08T03:41:06.474Z,1010
2017-07-08T03:41:47.382Z,1009.99
2017-07-08T03:42:28.256Z,1010.04
2017-07-08T03:43:09.152Z,1010.03
2017-07-08T03:43:50.050Z,1010.04
2017-07-08T03:44:30.934Z,1010.06
2017-07-08T03:45:11.820Z,1010.07
2017-07-08T03:45:52.719Z,1010.07
2017-07-08T03:46:33.611Z,1010.06
2017-07-08T03:47:14.587Z,1010.06
2017-07-08T03:47:55.406Z,1010.1
2017-07-08T03:48:37.010Z,1010.07
2017-07-08T03:49:17.912Z,1010.05
2017-07-08T03:49:58.846Z,1010.03
2017-07-08T03:50:39.685Z,1010.09
2017-07-08T03:51:20.559Z,1010.06
2017-07-08T03:52:01.444Z,1010.06
2017-07-08T03:52:42.330Z,1010.06
2017-07-08T03:53:23.220Z,1010.06
2017-07-08T03:54:04.118Z,1010.06
2017-07-08T03:54:45.009Z,1010.08
2017-07-08T03:55:25.892Z,1010.07
2017-07-08T03:56:06.778Z,1010.08
2017-07-08T03:56:47.677Z,1010.09
2017-07-08T03:57:28.572Z,1010.06
2017-07-08T03:58:09.438Z,1010.03
2017-07-08T03:58:50.324Z,1010.06
2017-07-08T03:59:31.215Z,1010.03
2017-07-08T04:00:12.094Z,1010.01
2017-07-08T04:00:52.996Z,1010.07
2017-07-08T04:01:33.917Z,1010.02
2017-07-08T04:02:14.775Z,1010.04
2017-07-08T04:02:55.657Z,1010.03
2017-07-08T04:03:36.553Z,1009.98
2017-07-08T04:04:17.423Z,1009.96
2017-07-08T04:04:58.296Z,1009.97
2017-07-08T04:05:39.179Z,1009.93
2017-07-08T04:06:20.065Z,1009.94
2017-07-08T04:07:00.974Z,1009.95
2017-07-08T04:07:41.835Z,1009.94
2017-07-08T04:08:22.719Z,1009.95
2017-07-08T04:09:03.611Z,1009.9
2017-07-08T04:09:44.507Z,1009.91
2017-07-08T04:10:25.385Z,1009.91
2017-07-08T04:11:06.272Z,1009.91
2017-07-08T04:11:47.167Z,1009.9
2017-07-08T04:12:28.057Z,1009.88
2017-07-08T04:13:08.950Z,1009.89
2017-07-08T04:13:49.851Z,1009.89
2017-07-08T04:14:30.746Z,1009.9
2017-07-08T04:15:11.644Z,1009.95
2017-07-08T04:15:52.530Z,1009.96
2017-07-08T04:16:33.414Z,1009.98
2017-07-08T04:17:14.297Z,1009.99
2017-07-08T04:17:55.194Z,1010.02
2017-07-08T04:18:36.085Z,1009.99
2017-07-08T04:19:16.977Z,1009.97
2017-07-08T04:19:57.887Z,1009.98
2017-07-08T04:20:38.784Z,1009.95
2017-07-08T04:21:19.684Z,1009.96
2017-07-08T04:22:00.608Z,1009.93
2017-07-08T04:22:41.499Z,1009.94
2017-07-08T04:23:22.379Z,1009.95
2017-07-08T04:24:03.274Z,1009.99
2017-07-08T04:24:44.176Z,1009.95
2017-07-08T04:25:25.063Z,1009.93
2017-07-08T04:26:05.955Z,1009.96
2017-07-08T04:26:46.844Z,1009.96
2017-07-08T04:27:27.733Z,1009.98
2017-07-08T04:28:08.645Z,1009.97
2017-07-08T04:28:49.548Z,1009.97
2017-07-08T04:29:30.432Z,1010.02
2017-07-08T04:30:11.322Z,1010.01
2017-07-08T04:30:52.219Z,1010.06
2017-07-08T04:31:33.126Z,1010.04
2017-07-08T04:32:14.007Z,1010.04
2017-07-08T04:32:54.896Z,1010.05
2017-07-08T04:33:35.782Z,1010.01
2017-07-08T04:34:16.661Z,1010.06
2017-07-08T04:34:57.561Z,1010.06
2017-07-08T04:35:38.440Z,1010.03
2017-07-08T04:36:19.344Z,1010.04
2017-07-08T04:37:00.238Z,1010.04
2017-07-08T04:37:41.117Z,1010.05
2017-07-08T04:38:22.021Z,1010.09
2017-07-08T04:39:02.927Z,1010.07
2017-07-08T04:39:43.810Z,1010.1
2017-07-08T04:40:24.695Z,1010.06
2017-07-08T04:41:05.598Z,1010.08
2017-07-08T04:41:46.488Z,1010.08
2017-07-08T04:42:27.378Z,1010.08
2017-07-08T04:43:08.263Z,1010.09
2017-07-08T04:43:49.170Z,1010.05
2017-07-08T04:44:30.046Z,1010.06
2017-07-08T04:45:10.979Z,1010.06
2017-07-08T04:45:51.879Z,1010.05
2017-07-08T04:46:32.775Z,1010.05
2017-07-08T04:47:13.666Z,1010.04
2017-07-08T04:47:54.566Z,1010.08
2017-07-08T04:48:35.456Z,1010.09
2017-07-08T04:49:16.365Z,1010.06
2017-07-08T04:49:57.265Z,1010.07
2017-07-08T04:50:38.140Z,1010.08
2017-07-08T04:51:19.035Z,1010.07
2017-07-08T04:51:59.948Z,1010.05
2017-07-08T04:52:40.840Z,1010.08
2017-07-08T04:53:21.736Z,1010.08
2017-07-08T04:54:02.624Z,1010.06
2017-07-08T04:54:43.536Z,1010.09
2017-07-08T04:55:24.428Z,1010.09
2017-07-08T04:56:05.350Z,1010.11
2017-07-08T04:56:46.257Z,1010.09
2017-07-08T04:57:27.143Z,1010.11
2017-07-08T04:58:08.035Z,1010.05
2017-07-08T04:58:48.943Z,1010.07
2017-07-08T04:59:29.813Z,1010.12
2017-07-08T05:00:10.716Z,1010.1
2017-07-08T05:00:51.609Z,1010.11
2017-07-08T05:01:32.494Z,1010.16
2017-07-08T05:02:13.389Z,1010.12
2017-07-08T05:02:54.289Z,1010.12
2017-07-08T05:03:35.170Z,1010.11
2017-07-08T05:04:16.078Z,1010.09
2017-07-08T05:04:56.975Z,1010.08
2017-07-08T05:05:37.863Z,1010.08
2017-07-08T05:06:18.756Z,1010.07
2017-07-08T05:06:59.643Z,1010.07
2017-07-08T05:07:40.535Z,1010.08
2017-07-08T05:08:21.415Z,1010.05
2017-07-08T05:09:02.313Z,1010.07
2017-07-08T05:09:43.203Z,1010.1
2017-07-08T05:10:24.101Z,1010.06
2017-07-08T05:11:04.994Z,1010.04
2017-07-08T05:11:45.890Z,1010.04
2017-07-08T05:12:26.795Z,1009.98
2017-07-08T05:13:07.690Z,1009.97
2017-07-08T05:13:48.569Z,1009.95
2017-07-08T05:14:29.456Z,1009.99
2017-07-08T05:15:10.353Z,1009.97
2017-07-08T05:15:51.243Z,1009.95
2017-07-08T05:16:32.150Z,1009.96
2017-07-08T05:17:13.031Z,1009.93
2017-07-08T05:17:53.918Z,1009.96
2017-07-08T05:18:34.811Z,1009.99
2017-07-08T05:19:15.695Z,1009.97
2017-07-08T05:19:56.602Z,1009.99
2017-07-08T05:20:37.497Z,1009.99
2017-07-08T05:21:18.383Z,1009.98
2017-07-08T05:21:59.288Z,1010
2017-07-08T05:22:40.177Z,1010.04
2017-07-08T05:23:21.063Z,1010.03
2017-07-08T05:24:01.966Z,1010.02
2017-07-08T05:24:42.852Z,1010.04
2017-07-08T05:25:23.717Z,1010.07
2017-07-08T05:26:04.604Z,1010.04
2017-07-08T05:26:45.506Z,1010.03
2017-07-08T05:27:26.399Z,1010.05
2017-07-08T05:28:07.313Z,1010.08
2017-07-08T05:28:48.203Z,1010.05
2017-07-08T05:29:29.114Z,1010.1
2017-07-08T05:30:10.019Z,1010.08
2017-07-08T05:30:50.897Z,1010.08
2017-07-08T05:31:31.793Z,1010.06
2017-07-08T05:32:12.690Z,1010.06
2017-07-08T05:32:53.571Z,1010.07
2017-07-08T05:33:34.470Z,1010.05
2017-07-08T05:34:15.359Z,1010.03
2017-07-08T05:34:56.250Z,1010.03
2017-07-08T05:35:37.145Z,1010.03
2017-07-08T05:36:18.051Z,1010.01
2017-07-08T05:36:58.951Z,1009.96
2017-07-08T05:37:39.848Z,1009.97
2017-07-08T05:38:20.743Z,1009.97
2017-07-08T05:39:01.638Z,1010.01
2017-07-08T05:39:42.531Z,1010.02
2017-07-08T05:40:23.424Z,1010.03
2017-07-08T05:41:04.324Z,1010.07
2017-07-08T05:41:45.206Z,1010.03
2017-07-08T05:42:26.089Z,1010.06
2017-07-08T05:43:06.976Z,1010.05
2017-07-08T05:43:47.881Z,1010.07
2017-07-08T05:44:28.758Z,1010.08
2017-07-08T05:45:09.652Z,1010.03
2017-07-08T05:45:50.550Z,1009.98
2017-07-08T05:46:31.439Z,1009.99
2017-07-08T05:47:12.315Z,1009.98
2017-07-08T05:47:53.211Z,1009.96
2017-07-08T05:48:34.100Z,1009.93
2017-07-08T05:49:14.978Z,1009.92
2017-07-08T05:49:55.860Z,1009.92
2017-07-08T05:50:36.770Z,1009.89
2017-07-08T05:51:17.644Z,1009.86
2017-07-08T05:51:58.533Z,1009.89
2017-07-08T05:52:39.438Z,1009.88
2017-07-08T05:53:20.316Z,1009.87
2017-07-08T05:54:01.185Z,1009.89
2017-07-08T05:54:42.112Z,1009.88
2017-07-08T05:55:22.996Z,1009.86
2017-07-08T05:56:03.898Z,1009.86
2017-07-08T05:56:44.806Z,1009.85
2017-07-08T05:57:25.695Z,1009.89
2017-07-08T05:58:06.603Z,1009.83
2017-07-08T05:58:47.496Z,1009.9
2017-07-08T05:59:28.382Z,1009.86
2017-07-08T06:00:09.277Z,1009.86
2017-07-08T06:00:50.158Z,1009.88
2017-07-08T06:01:31.085Z,1009.91
2017-07-08T06:02:11.964Z,1009.89
2017-07-08T06:02:52.854Z,1009.92
2017-07-08T06:03:33.768Z,1009.95
2017-07-08T06:04:14.716Z,1009.92
2017-07-08T06:04:55.662Z,1009.94
2017-07-08T06:05:36.554Z,1009.92
2017-07-08T06:06:17.432Z,1009.91
2017-07-08T06:06:58.323Z,1009.87
2017-07-08T06:07:39.226Z,1009.91
2017-07-08T06:08:20.112Z,1009.92
2017-07-08T06:09:00.998Z,1009.89
2017-07-08T06:09:41.902Z,1009.9
2017-07-08T06:10:22.783Z,1009.91
2017-07-08T06:11:03.693Z,1009.92
2017-07-08T06:11:44.598Z,1009.92
2017-07-08T06:12:25.482Z,1009.96
2017-07-08T06:13:06.385Z,1009.92
2017-07-08T06:13:47.272Z,1009.93
2017-07-08T06:14:28.149Z,1009.95
2017-07-08T06:15:09.040Z,1009.92
2017-07-08T06:15:49.950Z,1009.94
2017-07-08T06:16:30.825Z,1009.92
2017-07-08T06:17:11.713Z,1009.95
2017-07-08T06:17:52.623Z,1009.95
2017-07-08T06:18:33.591Z,1009.94
2017-07-08T06:19:14.463Z,1009.91
2017-07-08T06:19:55.353Z,1009.97
2017-07-08T06:20:36.266Z,1009.99
2017-07-08T06:21:17.175Z,1009.97
2017-07-08T06:21:58.083Z,1009.98
2017-07-08T06:22:38.991Z,1009.98
2017-07-08T06:23:19.894Z,1009.98
2017-07-08T06:24:00.783Z,1009.98
2017-07-08T06:24:41.684Z,1010
2017-07-08T06:25:22.574Z,1010.02
2017-07-08T06:26:03.449Z,1010.05
2017-07-08T06:26:44.342Z,1010.05
2017-07-08T06:27:25.248Z,1010.07
2017-07-08T06:28:06.132Z,1010.1
2017-07-08T06:28:47.072Z,1010.15
2017-07-08T06:29:27.928Z,1010.15
2017-07-08T06:30:08.820Z,1010.16
2017-07-08T06:30:49.727Z,1010.18
2017-07-08T06:31:30.602Z,1010.17
2017-07-08T06:32:11.493Z,1010.17
2017-07-08T06:32:52.387Z,1010.17
2017-07-08T06:33:33.323Z,1010.19
2017-07-08T06:34:14.253Z,1010.23
2017-07-08T06:34:55.106Z,1010.19
2017-07-08T06:35:36.002Z,1010.22
2017-07-08T06:36:16.914Z,1010.22
2017-07-08T06:36:57.803Z,1010.23
2017-07-08T06:37:38.702Z,1010.27
2017-07-08T06:38:19.587Z,1010.25
2017-07-08T06:39:00.449Z,1010.25
2017-07-08T06:39:41.353Z,1010.27
2017-07-08T06:40:22.244Z,1010.31
2017-07-08T06:41:03.121Z,1010.32
2017-07-08T06:43:02.896Z,1010.32
2017-07-08T06:43:43.789Z,1010.31
2017-07-08T06:44:24.682Z,1010.33
2017-07-08T06:46:23.547Z,1010.32
2017-07-08T06:47:04.443Z,1010.28
2017-07-08T06:47:45.410Z,1010.32
2017-07-08T06:48:26.295Z,1010.29
2017-07-08T06:49:07.182Z,1010.3
2017-07-08T06:49:48.093Z,1010.3
2017-07-08T06:50:29.186Z,1010.32
2017-07-08T06:51:10.070Z,1010.32
2017-07-08T06:51:50.960Z,1010.29
2017-07-08T06:52:31.863Z,1010.27
2017-07-08T06:53:12.783Z,1010.33
2017-07-08T06:53:53.681Z,1010.34
2017-07-08T06:54:34.624Z,1010.37
2017-07-08T06:55:15.507Z,1010.38
2017-07-08T06:55:56.400Z,1010.4
2017-07-08T06:56:37.293Z,1010.35
2017-07-08T06:57:18.176Z,1010.39
2017-07-08T06:57:59.064Z,1010.4
2017-07-08T06:58:39.961Z,1010.39
2017-07-08T06:59:20.854Z,1010.4
2017-07-08T07:00:01.730Z,1010.41
2017-07-08T07:00:42.617Z,1010.43
2017-07-08T07:01:23.507Z,1010.41
2017-07-08T07:02:04.396Z,1010.43
2017-07-08T07:02:45.299Z,1010.44
2017-07-08T07:03:26.201Z,1010.42
2017-07-08T07:04:07.079Z,1010.38
2017-07-08T07:04:47.970Z,1010.39
2017-07-08T07:05:28.871Z,1010.39
2017-07-08T07:06:09.753Z,1010.38
2017-07-08T07:06:50.641Z,1010.37
2017-07-08T07:07:31.546Z,1010.37
2017-07-08T07:08:12.426Z,1010.36
2017-07-08T07:08:53.312Z,1010.35
2017-07-08T07:09:34.213Z,1010.35
2017-07-08T07:10:15.098Z,1010.36
2017-07-08T07:10:55.996Z,1010.34
2017-07-08T07:11:36.910Z,1010.35
2017-07-08T07:12:17.789Z,1010.37
2017-07-08T07:12:58.691Z,1010.38
2017-07-08T07:13:39.583Z,1010.34
2017-07-08T07:14:20.461Z,1010.37
2017-07-08T07:15:01.361Z,1010.38
2017-07-08T07:15:42.243Z,1010.35
2017-07-08T07:16:23.140Z,1010.36
2017-07-08T07:17:04.027Z,1010.35
2017-07-08T07:17:44.925Z,1010.35
2017-07-08T07:18:25.839Z,1010.37
2017-07-08T07:19:06.939Z,1010.4
2017-07-08T07:19:47.827Z,1010.44
2017-07-08T07:20:28.725Z,1010.42
2017-07-08T07:21:09.621Z,1010.47
2017-07-08T07:21:50.501Z,1010.47
2017-07-08T07:22:31.393Z,1010.5
2017-07-08T07:23:12.312Z,1010.52
2017-07-08T07:23:53.205Z,1010.52
2017-07-08T07:24:34.105Z,1010.5
2017-07-08T07:25:14.992Z,1010.54
2017-07-08T07:25:55.873Z,1010.55
2017-07-08T07:26:36.793Z,1010.56
2017-07-08T07:27:17.678Z,1010.49
2017-07-08T07:27:58.582Z,1010.49
2017-07-08T07:28:39.490Z,1010.48
2017-07-08T07:29:20.364Z,1010.45
2017-07-08T07:30:01.268Z,1010.47
2017-07-08T07:30:42.157Z,1010.45
2017-07-08T07:31:23.060Z,1010.44
2017-07-08T07:32:03.969Z,1010.43
2017-07-08T07:32:44.854Z,1010.46
2017-07-08T07:33:25.741Z,1010.45
2017-07-08T07:34:06.639Z,1010.48
2017-07-08T07:34:47.528Z,1010.44
2017-07-08T07:35:28.440Z,1010.44
2017-07-08T07:36:09.339Z,1010.49
2017-07-08T07:36:50.209Z,1010.46
2017-07-08T07:37:31.110Z,1010.44
2017-07-08T07:39:25.754Z,1010.48
2017-07-08T07:40:06.658Z,1010.45
2017-07-08T07:40:47.557Z,1010.46
2017-07-08T07:41:28.449Z,1010.47
2017-07-08T07:42:09.355Z,1010.5
2017-07-08T07:42:50.238Z,1010.47
2017-07-08T07:43:31.128Z,1010.47
2017-07-08T07:44:12.033Z,1010.42
2017-07-08T07:44:52.950Z,1010.4
2017-07-08T07:45:33.891Z,1010.48
2017-07-08T07:46:14.747Z,1010.42
2017-07-08T07:46:55.677Z,1010.44
2017-07-08T07:47:36.632Z,1010.41
2017-07-08T07:48:17.734Z,1010.47
2017-07-08T07:48:58.653Z,1010.46
2017-07-08T07:49:39.564Z,1010.47
2017-07-08T07:50:20.826Z,1010.49
2017-07-08T07:51:02.278Z,1010.54
2017-07-08T07:51:43.268Z,1010.49
2017-07-08T07:52:24.190Z,1010.49
2017-07-08T07:53:05.112Z,1010.45
2017-07-08T07:53:51.714Z,1010.47
2017-07-08T07:54:32.595Z,1010.49
2017-07-08T07:55:13.491Z,1010.49
2017-07-08T07:55:54.394Z,1010.51
2017-07-08T07:56:35.285Z,1010.56
2017-07-08T07:57:16.195Z,1010.56
2017-07-08T07:57:57.099Z,1010.5
2017-07-08T07:58:37.982Z,1010.49
2017-07-08T07:59:18.887Z,1010.52
2017-07-08T07:59:59.776Z,1010.53
2017-07-08T08:00:40.682Z,1010.48
2017-07-08T08:01:21.572Z,1010.54
2017-07-08T08:02:02.467Z,1010.55
2017-07-08T08:02:43.354Z,1010.51
2017-07-08T08:03:24.246Z,1010.54
2017-07-08T08:04:05.133Z,1010.53
2017-07-08T08:04:46.043Z,1010.53
2017-07-08T08:05:26.950Z,1010.6
2017-07-08T08:06:07.852Z,1010.6
2017-07-08T08:06:48.737Z,1010.62
2017-07-08T08:07:29.625Z,1010.6
2017-07-08T08:08:10.527Z,1010.61
2017-07-08T08:08:51.421Z,1010.64
2017-07-08T08:09:32.305Z,1010.62
2017-07-08T08:10:13.209Z,1010.62
2017-07-08T08:10:54.097Z,1010.69
2017-07-08T08:11:34.994Z,1010.72
2017-07-08T08:12:15.881Z,1010.67
2017-07-08T08:12:56.775Z,1010.67
2017-07-08T08:13:37.673Z,1010.65
2017-07-08T08:14:18.567Z,1010.69
2017-07-08T08:14:59.462Z,1010.68
2017-07-08T08:15:40.392Z,1010.71
2017-07-08T08:16:21.265Z,1010.72
2017-07-08T08:17:02.150Z,1010.74
2017-07-08T08:17:43.050Z,1010.77
2017-07-08T08:18:23.941Z,1010.79
2017-07-08T08:19:04.827Z,1010.8
2017-07-08T08:19:45.741Z,1010.76
2017-07-08T08:20:26.646Z,1010.83
2017-07-08T08:21:07.534Z,1010.74
2017-07-08T08:21:48.434Z,1010.81